Time;durP1;ratioP1;P1;durP2;ratioP2;P2;SDS_P1;SDS_P2;PMS_P1;PMS_P2;Temp;Humidity;BMP_temperature;BMP_pressure;BME280_temperature;BME280_humidity;BME280_pressure;Samples;Min_cycle;Max_cycle;Signal;HPM_P1;HPM_P2
2022/12/24 00:01:20;;;;;;;31.30;20.60;;;;;;;6.24;71.60;98044.63;239443;1181;138710;-69
2022/12/24 00:06:32;;;;;;;32.60;21.30;;;;;;;6.27;71.11;98046.54;239386;1181;138627;-68
2022/12/24 00:11:35;;;;;;;33.50;20.60;;;;;;;6.21;71.03;98051.31;239481;1182;138914;-68
2022/12/24 00:16:39;;;;;;;30.10;20.00;;;;;;;6.15;71.40;98052.19;239334;1182;138723;-66
2022/12/24 00:21:42;;;;;;;33.20;19.80;;;;;;;6.20;71.68;98051.02;239354;1182;138688;-67
2022/12/24 00:26:46;;;;;;;26.70;17.60;;;;;;;6.21;71.35;98037.35;239451;1181;138213;-66
2022/12/24 00:31:49;;;;;;;28.70;18.20;;;;;;;6.23;71.32;98028.45;239209;1182;138682;-69
2022/12/24 00:36:52;;;;;;;29.10;18.60;;;;;;;6.28;71.25;98026.73;239406;1181;139632;-68
2022/12/24 00:41:56;;;;;;;28.00;18.30;;;;;;;6.32;71.05;98010.84;239293;1182;138937;-65
2022/12/24 00:47:02;;;;;;;29.50;19.10;;;;;;;6.30;70.71;98004.76;239495;1182;138732;-66
2022/12/24 00:53:13;;;;;;;30.10;19.90;;;;;;;6.28;70.49;98005.40;239446;1181;139026;-67
2022/12/24 00:59:11;;;;;;;32.60;20.20;;;;;;;6.23;70.74;98009.41;239237;1180;139041;-66
2022/12/24 01:05:49;;;;;;;35.90;22.10;;;;;;;6.17;70.66;98007.17;239394;1181;140147;-68
2022/12/24 01:10:57;;;;;;;40.00;24.30;;;;;;;6.12;70.80;97994.08;239327;1180;138668;-67
2022/12/24 01:16:14;;;;;;;;;;;;;;;;;;;;;
2022/12/24 01:21:41;;;;;;;44.30;28.40;;;;;;;6.05;71.51;97981.86;239314;1182;139572;-68
2022/12/24 01:26:53;;;;;;;42.90;28.60;;;;;;;6.05;71.60;97970.04;239428;1182;138747;-68
2022/12/24 01:32:02;;;;;;;39.80;26.40;;;;;;;6.11;71.53;97970.16;239122;1182;139125;-69
2022/12/24 01:37:46;;;;;;;43.30;28.30;;;;;;;6.19;70.93;97961.79;239096;1185;139649;-68
2022/12/24 01:49:19;;;;;;;;;;;;;;;;;;;;;
2022/12/24 01:55:36;;;;;;;43.50;28.90;;;;;;;6.10;71.23;97951.23;239411;1182;138617;-68
2022/12/24 02:01:17;;;;;;;36.70;25.70;;;;;;;6.05;71.33;97952.27;239462;1182;140160;-68
2022/12/24 02:07:29;;;;;;;42.80;27.30;;;;;;;6.02;71.84;97953.34;239282;1181;139042;-69
2022/12/24 02:13:37;;;;;;;35.00;22.60;;;;;;;6.00;71.68;97963.48;239199;1182;139074;-68
2022/12/24 02:19:46;;;;;;;;;;;;;;;6.04;71.62;97957.97;239306;1182;139437;-67
2022/12/24 02:26:17;;;;;;;37.60;24.30;;;;;;;6.11;71.49;97949.76;239377;1181;125040;-66
2022/12/24 02:32:18;;;;;;;;;;;;;;;;;;;;;
2022/12/24 02:38:10;;;;;;;;;;;;;;;;;;;;;
2022/12/24 02:44:36;;;;;;;35.70;24.40;;;;;;;6.08;71.66;97937.42;239397;1182;138424;-68
2022/12/24 02:50:52;;;;;;;34.90;24.10;;;;;;;6.04;71.78;97944.89;239358;1182;138441;-70
2022/12/24 02:57:14;;;;;;;36.20;25.00;;;;;;;6.04;71.77;97935.27;239541;1180;138603;-69
2022/12/24 03:03:43;;;;;;;31.80;21.10;;;;;;;6.02;71.82;97941.72;239246;1182;138806;-67
2022/12/24 03:09:59;;;;;;;37.80;23.80;;;;;;;6.05;71.87;97942.76;238780;1184;139585;-68
2022/12/24 03:16:57;;;;;;;34.40;22.80;;;;;;;6.11;71.70;97941.86;239317;1181;139188;-66
2022/12/24 03:23:33;;;;;;;35.00;23.50;;;;;;;6.12;71.70;97939.47;239125;1182;139050;-68
2022/12/24 03:30:52;;;;;;;34.70;23.10;;;;;;;6.09;71.88;97951.11;238216;1187;138981;-70
2022/12/24 03:52:27;;;;;;;31.70;21.60;;;;;;;6.08;72.84;97952.77;238011;1184;139013;-68
2022/12/24 04:06:22;;;;;;;;;;;;;;;;;;;;;
2022/12/24 04:19:02;;;;;;;;;;;;;;;;;;;;;
2022/12/24 04:52:01;;;;;;;;;;;;;;;;;;;;;
2022/12/24 04:58:27;;;;;;;35.80;24.90;;;;;;;6.62;72.73;97953.95;234128;1198;138546;-70
2022/12/24 05:04:13;;;;;;;;;;;;;;;;;;;;;
2022/12/24 05:10:10;;;;;;;20.20;14.00;;;;;;;6.79;74.51;97950.91;234354;1198;139878;-71
2022/12/24 05:15:48;;;;;;;18.20;12.50;;;;;;;6.99;75.00;97949.68;234453;1200;139283;-67
2022/12/24 05:21:30;;;;;;;47.50;34.30;;;;;;;7.23;75.24;97948.10;234396;1201;139194;-65
2022/12/24 05:27:57;;;;;;;15.90;10.80;;;;;;;7.50;75.11;97952.44;234449;1199;138846;-67
2022/12/24 05:34:11;;;;;;;13.50;10.40;;;;;;;7.60;74.66;97959.38;234133;1200;138331;-67
2022/12/24 05:39:57;;;;;;;14.20;9.90;;;;;;;7.68;74.85;97966.41;234268;1199;139168;-67
2022/12/24 05:45:42;;;;;;;13.80;10.70;;;;;;;7.82;74.74;97966.73;234327;1199;138516;-67
2022/12/24 05:51:17;;;;;;;19.00;12.90;;;;;;;7.90;74.51;97971.12;234292;1199;138563;-67
2022/12/24 05:57:12;;;;;;;;;;;;;;;;;;;;;
2022/12/24 06:02:54;;;;;;;13.50;10.10;;;;;;;8.03;74.17;97973.98;234414;1199;140165;-68
2022/12/24 06:08:01;;;;;;;13.20;9.80;;;;;;;8.09;74.29;97978.27;234464;1198;139505;-67
2022/12/24 06:13:25;;;;;;;13.00;9.80;;;;;;;8.20;74.21;97978.80;234292;1200;138626;-64
2022/12/24 06:19:45;;;;;;;12.50;10.00;;;;;;;8.22;74.04;97981.77;234302;1199;138532;-68
2022/12/24 06:25:24;;;;;;;;;;;;;;;;;;;;;
2022/12/24 06:31:12;;;;;;;;;;;;;;;;;;;;;
2022/12/24 06:37:15;;;;;;;13.00;9.30;;;;;;;8.18;74.26;97995.71;234681;1198;125670;-70
2022/12/24 06:43:13;;;;;;;;;;;;;;;;;;;;;
2022/12/24 06:49:00;;;;;;;;;;;;;;;;;;;;;
2022/12/24 06:54:47;;;;;;;13.30;9.40;;;;;;;8.26;73.77;98017.36;234555;1201;138561;-71
2022/12/24 07:01:00;;;;;;;;;;;;;;;;;;;;;
2022/12/24 07:06:59;;;;;;;14.10;10.10;;;;;;;8.22;74.15;98039.94;234406;1199;138623;-65
2022/12/24 07:12:57;;;;;;;12.20;9.90;;;;;;;8.23;74.14;98049.07;234542;1198;138683;-66
2022/12/24 07:18:29;;;;;;;12.90;9.40;;;;;;;8.30;74.25;98050.16;234574;1197;138921;-66
2022/12/24 07:24:24;;;;;;;;;;;;;;;;;;;;;
2022/12/24 07:30:09;;;;;;;12.50;10.30;;;;;;;8.44;73.90;98041.81;234364;1196;139415;-66
2022/12/24 07:36:37;;;;;;;14.50;10.80;;;;;;;8.47;73.59;98048.30;234512;1199;138824;-65
2022/12/24 07:48:21;;;;;;;14.40;9.30;;;;;;;8.46;73.66;98054.41;234261;1199;138731;-65
2022/12/24 07:54:25;;;;;;;11.90;8.50;;;;;;;8.41;73.82;98066.63;234308;1199;138745;-66
2022/12/24 08:00:24;;;;;;;12.10;9.30;;;;;;;8.51;73.88;98066.41;234255;1198;139308;-64
2022/12/24 08:05:58;;;;;;;13.10;8.60;;;;;;;8.67;73.80;98070.27;234463;1198;139972;-64
2022/12/24 08:12:12;;;;;;;;;;;;;;;;;;;;;
2022/12/24 08:18:43;;;;;;;12.70;8.20;;;;;;;8.95;73.60;98082.63;234432;1196;138657;-66
2022/12/24 08:23:53;;;;;;;10.60;7.00;;;;;;;9.00;73.13;98092.88;234494;1196;138681;-64
2022/12/24 08:29:51;;;;;;;;;;;;;;;;;;;;;
2022/12/24 08:42:35;;;;;;;7.90;5.90;;;;;;;9.34;72.93;98116.66;234487;1196;139508;-66
2022/12/24 08:49:19;;;;;;;9.00;6.10;;;;;;;9.46;72.73;98118.09;234443;1196;138505;-65
2022/12/24 08:55:19;;;;;;;9.80;5.90;;;;;;;9.49;72.24;98115.58;234569;1196;138246;-63
2022/12/24 09:01:06;;;;;;;9.50;5.60;;;;;;;9.49;72.21;98119.64;234473;1196;139116;-63
2022/12/24 09:06:16;;;;;;;122.30;76.70;;;;;;;9.51;72.15;98118.98;234420;1196;140338;-66
2022/12/24 09:13:10;;;;;;;10.80;4.90;;;;;;;9.65;72.05;98125.56;234453;1199;139347;-65
2022/12/24 09:24:03;;;;;;;;;;;;;;;;;;;;;
2022/12/24 09:44:28;;;;;;;6.90;4.30;;;;;;;9.88;71.78;98156.14;233867;1201;138470;-65
2022/12/24 09:50:58;;;;;;;6.90;4.10;;;;;;;9.96;70.83;98159.95;234087;1200;138434;-63
2022/12/24 09:58:03;;;;;;;;;;;;;;;;;;;;;
2022/12/24 10:11:33;;;;;;;28.20;20.40;;;;;;;9.98;71.18;98187.81;233421;1201;138939;-65
2022/12/24 10:17:42;;;;;;;7.40;3.80;;;;;;;10.12;71.33;98196.30;234186;1200;140267;-64
2022/12/24 10:23:14;;;;;;;7.00;3.90;;;;;;;10.06;70.34;98201.07;234377;1199;138282;-67
2022/12/24 10:29:41;;;;;;;6.40;3.90;;;;;;;9.92;70.76;98207.93;234878;1196;138187;-70
2022/12/24 10:35:20;;;;;;;8.70;3.90;;;;;;;9.85;71.26;98202.23;234580;1195;138649;-65
2022/12/24 10:41:31;;;;;;;6.20;3.50;;;;;;;9.83;70.77;98202.20;234641;1196;138865;-69
2022/12/24 10:47:07;;;;;;;;;;;;;;;;;;;;;
2022/12/24 10:53:26;;;;;;;;;;;;;;;;;;;;;
2022/12/24 10:59:19;;;;;;;46.70;27.40;;;;;;;9.82;70.21;98207.94;234673;1196;139076;-65
2022/12/24 11:05:29;;;;;;;9.80;4.80;;;;;;;10.00;70.42;98216.87;234699;1196;139501;-65
2022/12/24 11:11:37;;;;;;;;;;;;;;;;;;;;;
2022/12/24 11:18:25;;;;;;;8.50;3.90;;;;;;;10.16;68.83;98222.64;234265;1200;138674;-64
2022/12/24 11:44:09;;;;;;;7.10;4.10;;;;;;;10.27;71.39;98276.40;234136;1201;139091;-65
2022/12/24 11:58:02;;;;;;;8.80;4.80;;;;;;;10.27;68.91;98283.91;233568;1200;139550;-63
2022/12/24 12:04:23;;;;;;;10.70;5.90;;;;;;;10.07;68.96;98289.61;234255;1202;138836;-63
2022/12/24 12:17:02;;;;;;;7.30;4.30;;;;;;;9.95;69.47;98314.53;232021;1212;647226;-63
2022/12/24 12:23:17;;;;;;;11.70;4.40;;;;;;;9.82;69.84;98326.46;234173;1202;139724;-65
2022/12/24 12:29:43;;;;;;;;;;;;;;;;;;;;;
2022/12/24 12:43:43;;;;;;;9.30;5.20;;;;;;;9.67;71.09;98379.56;232743;1210;137924;-67
2022/12/24 12:49:24;;;;;;;11.40;4.90;;;;;;;9.61;71.54;98385.13;234923;1195;137977;-63
2022/12/24 12:55:16;;;;;;;204.00;123.50;;;;;;;9.57;71.08;98387.91;234719;1195;138618;-64
2022/12/24 13:00:52;;;;;;;11.00;6.40;;;;;;;9.59;71.94;98397.84;234733;1195;139809;-66
2022/12/24 13:06:41;;;;;;;12.10;5.40;;;;;;;9.55;71.76;98407.13;234595;1196;138605;-63
2022/12/24 13:12:16;;;;;;;11.90;5.20;;;;;;;9.46;71.80;98427.75;234650;1195;138150;-66
2022/12/24 13:18:25;;;;;;;12.10;6.00;;;;;;;9.40;72.14;98441.42;234465;1195;138482;-65
2022/12/24 13:24:25;;;;;;;13.90;6.40;;;;;;;9.53;72.14;98446.38;234429;1195;140533;-66
2022/12/24 13:29:55;;;;;;;28.40;16.40;;;;;;;9.64;71.86;98460.66;234591;1195;139327;-66
2022/12/24 13:35:43;;;;;;;14.80;6.30;;;;;;;9.69;71.96;98469.05;234505;1195;138567;-65
2022/12/24 13:42:09;;;;;;;15.50;6.70;;;;;;;9.65;71.87;98481.89;234246;1196;138367;-64
2022/12/24 13:49:28;;;;;;;9.70;6.20;;;;;;;9.68;72.54;98482.92;234215;1199;139567;-65
2022/12/24 13:57:10;;;;;;;9.70;6.00;;;;;;;9.70;72.42;98497.84;234213;1201;137627;-65
2022/12/24 14:04:31;;;;;;;;;;;;;;;;;;;;;
2022/12/24 14:10:56;;;;;;;;;;;;;;;;;;;;;
2022/12/24 14:17:40;;;;;;;;;;;;;;;9.50;72.94;98548.77;234105;1196;139187;-66
2022/12/24 14:23:37;;;;;;;9.20;6.30;;;;;;;9.54;73.23;98557.36;234678;1194;125382;-63
2022/12/24 14:29:27;;;;;;;13.80;7.80;;;;;;;9.72;73.66;98559.00;234699;1195;138300;-65
2022/12/24 14:35:19;;;;;;;10.30;6.60;;;;;;;9.77;72.96;98571.05;234724;1195;137757;-67
2022/12/24 14:42:17;;;;;;;15.30;8.40;;;;;;;9.71;73.13;98583.34;234281;1200;139189;-68
2022/12/24 14:48:38;;;;;;;11.10;6.50;;;;;;;9.66;73.02;98598.39;234682;1196;138952;-64
2022/12/24 14:54:41;;;;;;;;;;;;;;;;;;;;;
2022/12/24 15:00:48;;;;;;;12.60;7.60;;;;;;;9.77;73.40;98618.76;234069;1199;141212;-68
2022/12/24 15:07:02;;;;;;;12.60;7.90;;;;;;;9.81;72.75;98629.10;234221;1199;138719;-66
2022/12/24 15:14:22;;;;;;;;;;;;;;;;;;;;;
2022/12/24 15:43:57;;;;;;;16.20;8.80;;;;;;;9.76;72.48;98677.79;233379;1204;138727;-69
2022/12/24 15:49:30;;;;;;;14.00;8.00;;;;;;;9.69;72.33;98695.03;233680;1202;138687;-67
2022/12/24 16:02:21;;;;;;;13.90;8.70;;;;;;;9.77;72.48;98706.40;233508;1202;138703;-69
2022/12/24 16:08:44;;;;;;;;;;;;;;;;;;;;;
2022/12/24 16:15:28;;;;;;;;;;;;;;;;;;;;;
2022/12/24 16:22:40;;;;;;;;;;;;;;;;;;;;;
2022/12/24 16:29:06;;;;;;;16.10;10.70;;;;;;;9.81;72.68;98727.63;233829;1202;138027;-67
2022/12/24 16:55:11;;;;;;;;;;;;;;;;;;;;;
2022/12/24 17:01:08;;;;;;;156.30;105.50;;;;;;;9.94;71.37;98764.85;233979;1202;138726;-68
2022/12/24 17:07:46;;;;;;;14.90;8.80;;;;;;;10.04;71.57;98769.89;233883;1202;140450;-67
2022/12/24 17:14:25;;;;;;;19.00;9.00;;;;;;;10.08;70.76;98780.10;233888;1201;139045;-66
2022/12/24 17:26:52;;;;;;;15.00;7.60;;;;;;;9.99;70.49;98807.27;233721;1201;139002;-67
2022/12/24 17:32:26;;;;;;;18.80;8.20;;;;;;;9.88;70.76;98807.79;233909;1202;140118;-67
2022/12/24 17:38:01;;;;;;;19.10;9.20;;;;;;;9.83;70.41;98810.26;233726;1202;139723;-67
2022/12/24 17:43:40;;;;;;;17.40;10.00;;;;;;;9.75;70.80;98809.52;234103;1202;139500;-67
2022/12/24 17:49:55;;;;;;;;;;;;;;;;;;;;;
2022/12/24 17:55:22;;;;;;;25.00;11.80;;;;;;;9.80;70.38;98820.70;234045;1200;139355;-68
2022/12/24 18:01:29;;;;;;;;;;;;;;;;;;;;;
2022/12/24 18:07:49;;;;;;;;;;;;;;;;;;;;;
2022/12/24 18:13:49;;;;;;;22.80;11.50;;;;;;;9.61;69.99;98851.29;234226;1198;138914;-69
2022/12/24 18:19:42;;;;;;;;;;;;;;;;;;;;;
2022/12/24 18:24:52;;;;;;;24.00;11.50;;;;;;;9.54;69.67;98873.32;234354;1197;139165;-68
2022/12/24 18:31:08;;;;;;;25.80;11.70;;;;;;;9.57;69.31;98870.80;234276;1199;138366;-68
2022/12/24 18:37:22;;;;;;;21.80;11.80;;;;;;;9.53;68.80;98867.73;234254;1197;139218;-67
2022/12/24 18:42:50;;;;;;;28.00;13.10;;;;;;;9.45;68.79;98871.38;234205;1196;139444;-68
2022/12/24 18:48:01;;;;;;;28.50;14.00;;;;;;;9.32;68.46;98883.66;234340;1198;139571;-67
2022/12/24 18:53:39;;;;;;;24.70;13.30;;;;;;;9.20;68.64;98888.44;234312;1199;140060;-67
2022/12/24 18:59:37;;;;;;;26.30;12.80;;;;;;;9.11;68.46;98899.26;234290;1198;139249;-68
2022/12/24 19:05:25;;;;;;;;;;;;;;;;;;;;;
2022/12/24 19:11:12;;;;;;;;;;;;;;;;;;;;;
2022/12/24 19:17:38;;;;;;;28.20;14.50;;;;;;;9.14;69.17;98931.95;234297;1198;138950;-68
2022/12/24 19:24:01;;;;;;;29.40;13.00;;;;;;;9.07;68.07;98941.91;234223;1198;139509;-66
2022/12/24 19:29:18;;;;;;;27.30;14.00;;;;;;;8.98;68.12;98947.38;234191;1200;138934;-66
2022/12/24 19:35:23;;;;;;;27.40;13.40;;;;;;;8.90;68.31;98958.29;234209;1197;139084;-67
2022/12/24 19:41:24;;;;;;;22.30;12.30;;;;;;;8.83;68.33;98972.50;234366;1198;139675;-66
2022/12/24 19:47:20;;;;;;;26.40;13.00;;;;;;;8.78;68.34;98979.47;234264;1197;138907;-66
2022/12/24 19:52:44;;;;;;;;;;;;;;;;;;;;;
2022/12/24 19:58:54;;;;;;;26.80;12.50;;;;;;;8.81;68.09;98996.11;234326;1198;139850;-66
2022/12/24 20:05:05;;;;;;;123.10;79.50;;;;;;;8.90;69.59;99000.59;234219;1196;138979;-68
2022/12/24 20:10:46;;;;;;;29.60;13.40;;;;;;;9.10;69.16;99010.59;234326;1199;139629;-68
2022/12/24 20:16:24;;;;;;;28.80;13.10;;;;;;;9.11;67.86;99017.64;234338;1198;139050;-67
2022/12/24 20:22:05;;;;;;;24.30;12.50;;;;;;;9.00;67.76;99020.36;234245;1196;139084;-68
2022/12/24 20:28:21;;;;;;;20.90;12.20;;;;;;;8.88;67.57;99027.94;234492;1196;139077;-66
2022/12/24 20:34:06;;;;;;;23.40;11.70;;;;;;;8.77;67.74;99020.21;234187;1197;139540;-66
2022/12/24 20:40:07;;;;;;;23.40;11.50;;;;;;;8.72;67.75;99024.01;232129;1210;645106;-66
2022/12/24 20:56:46;;;;;;;;;;;;;;;;;;;;;
2022/12/24 21:03:22;;;;;;;60.70;39.00;;;;;;;8.86;68.45;99049.45;234373;1198;138306;-67
2022/12/24 21:08:29;;;;;;;24.00;12.30;;;;;;;8.95;68.05;99045.09;234332;1201;139098;-68
2022/12/24 21:14:25;;;;;;;26.20;12.50;;;;;;;8.89;67.76;99035.51;234488;1196;138910;-67
2022/12/24 21:20:28;;;;;;;;;;;;;;;;;;;;;
2022/12/24 21:26:48;;;;;;;;;;;;;;;;;;;;;
2022/12/24 21:33:05;;;;;;;25.10;12.60;;;;;;;8.90;67.56;99052.41;234499;1198;138753;-67
2022/12/24 21:39:29;;;;;;;26.10;12.60;;;;;;;8.86;67.46;99058.11;234382;1198;138952;-69
2022/12/24 21:44:54;;;;;;;25.50;12.90;;;;;;;8.90;67.59;99067.81;234379;1199;139223;-68
2022/12/24 22:03:08;;;;;;;27.60;13.30;;;;;;;8.84;67.20;99084.09;234341;1198;138373;-68
2022/12/24 22:15:30;;;;;;;;;;;;;;;;;;;;;
2022/12/24 22:21:37;;;;;;;30.30;14.50;;;;;;;8.86;67.67;99086.08;234456;1198;138616;-65
2022/12/24 22:27:32;;;;;;;;;;;;;;;8.79;67.59;99090.90;234397;1199;138757;-64
2022/12/24 22:33:19;;;;;;;;;;;;;;;8.81;68.10;99100.52;234420;1200;125305;-65
2022/12/24 22:39:43;;;;;;;25.60;13.00;;;;;;;8.84;67.60;99096.13;234504;1196;125609;-67
2022/12/24 22:45:06;;;;;;;28.50;14.80;;;;;;;8.82;67.71;99097.07;234378;1199;139672;-68
2022/12/24 22:50:22;;;;;;;28.40;14.90;;;;;;;8.83;67.76;99100.59;234627;1199;138723;-65
2022/12/24 22:56:25;;;;;;;32.80;15.50;;;;;;;8.83;67.84;99109.27;234583;1196;139170;-67
2022/12/24 23:01:51;;;;;;;30.10;15.90;;;;;;;8.75;67.63;99113.02;234637;1198;138339;-66
2022/12/24 23:07:56;;;;;;;;;;;;;;;;;;;;;
2022/12/24 23:56:13;;;;;;;28.00;13.60;;;;;;;8.73;67.66;99145.67;231414;1216;657560;-68
